Time;durP1;ratioP1;P1;durP2;ratioP2;P2;SDS_P1;SDS_P2;PMS_P1;PMS_P2;Temp;Humidity;BMP_temperature;BMP_pressure;BME280_temperature;BME280_humidity;BME280_pressure;Samples;Min_cycle;Max_cycle;Signal;HPM_P1;HPM_P2
2022/01/29 00:02:01;;;;;;;40.75;20.15;;;7.00;99.90;;;;;;5048182;28;20717;-89
2022/01/29 00:04:27;;;;;;;46.33;21.33;;;7.00;99.90;;;;;;5034414;28;20154;-90
2022/01/29 00:06:53;;;;;;;39.67;21.85;;;7.10;99.90;;;;;;5048901;28;20064;-87
2022/01/29 00:09:23;;;;;;;47.28;20.75;;;7.00;99.90;;;;;;5047531;28;20136;-87
2022/01/29 00:11:49;;;;;;;43.35;20.88;;;7.00;99.90;;;;;;5018824;28;20076;-90
2022/01/29 00:14:17;;;;;;;43.88;20.30;;;7.00;99.90;;;;;;5050985;28;20076;-90
2022/01/29 00:16:43;;;;;;;39.30;19.08;;;6.90;99.90;;;;;;5047363;28;20049;-85
2022/01/29 00:19:09;;;;;;;40.03;19.17;;;6.90;99.90;;;;;;5030399;28;20042;-84
2022/01/29 00:21:35;;;;;;;39.92;20.35;;;6.90;99.90;;;;;;5041311;28;20483;-85
2022/01/29 00:24:00;;;;;;;46.70;20.33;;;6.90;99.90;;;;;;5043010;28;20195;-83
2022/01/29 00:26:27;;;;;;;37.70;19.92;;;6.80;99.90;;;;;;5042811;28;20037;-84
2022/01/29 00:28:55;;;;;;;40.65;19.45;;;6.80;99.90;;;;;;5008427;28;20145;-83
2022/01/29 00:31:21;;;;;;;46.78;22.60;;;6.80;99.90;;;;;;5045987;28;20383;-83
2022/01/29 00:33:47;;;;;;;42.60;21.90;;;6.80;99.90;;;;;;5048345;28;20068;-83
2022/01/29 00:36:12;;;;;;;54.53;23.80;;;6.70;99.90;;;;;;5046700;28;20081;-83
2022/01/29 00:38:38;;;;;;;49.58;25.05;;;6.70;99.90;;;;;;5049058;28;20049;-84
2022/01/29 00:41:04;;;;;;;50.92;26.48;;;6.60;99.90;;;;;;5048619;28;20045;-83
2022/01/29 00:43:30;;;;;;;54.38;25.80;;;6.60;99.90;;;;;;5012949;28;20095;-83
2022/01/29 00:45:55;;;;;;;51.83;25.65;;;6.60;99.90;;;;;;5064593;28;20049;-83
2022/01/29 00:48:21;;;;;;;54.10;26.58;;;6.60;99.90;;;;;;5026950;28;20025;-84
2022/01/29 00:50:47;;;;;;;54.80;26.92;;;6.60;99.90;;;;;;5031179;28;20716;-83
2022/01/29 00:53:12;;;;;;;58.92;28.08;;;6.60;99.90;;;;;;5030187;28;20053;-83
2022/01/29 00:55:41;;;;;;;45.13;22.90;;;6.60;99.90;;;;;;5021288;28;20044;-85
2022/01/29 00:58:07;;;;;;;55.40;26.17;;;6.50;99.90;;;;;;5045588;28;20123;-85
2022/01/29 01:00:33;;;;;;;49.60;25.73;;;6.50;99.90;;;;;;5049800;28;20044;-84
2022/01/29 01:02:59;;;;;;;51.40;26.60;;;6.50;99.90;;;;;;5035760;28;20095;-84
2022/01/29 01:05:25;;;;;;;61.13;27.13;;;6.50;99.90;;;;;;5048708;28;20049;-84
2022/01/29 01:07:50;;;;;;;57.83;28.90;;;6.50;99.90;;;;;;5014068;28;20502;-84
2022/01/29 01:10:16;;;;;;;59.20;27.58;;;6.60;99.90;;;;;;5046203;28;20051;-83
2022/01/29 01:12:42;;;;;;;59.25;27.90;;;6.50;99.90;;;;;;5034371;28;20046;-86
2022/01/29 01:15:09;;;;;;;59.03;27.83;;;6.50;99.90;;;;;;5019172;28;20045;-83
2022/01/29 01:17:35;;;;;;;49.78;25.38;;;6.50;99.90;;;;;;5040518;28;20064;-84
2022/01/29 01:20:00;;;;;;;58.70;29.58;;;6.60;99.90;;;;;;5042879;28;20052;-84
2022/01/29 01:22:26;;;;;;;49.00;24.33;;;6.60;99.90;;;;;;5028391;28;20040;-84
2022/01/29 01:24:52;;;;;;;45.70;23.15;;;6.60;99.90;;;;;;5046614;28;20044;-83
2022/01/29 01:27:17;;;;;;;50.85;26.00;;;6.60;99.90;;;;;;5064506;28;20068;-83
2022/01/29 01:29:43;;;;;;;56.22;26.35;;;6.60;99.90;;;;;;5038092;28;20049;-86
2022/01/29 01:32:12;;;;;;;52.03;28.55;;;6.60;99.90;;;;;;5047557;28;20077;-83
2022/01/29 01:34:43;;;;;;;58.17;28.00;;;6.60;99.90;;;;;;5044251;28;20048;-84
2022/01/29 01:37:15;;;;;;;44.85;22.92;;;6.60;99.90;;;;;;5048674;28;20052;-84
2022/01/29 01:39:42;;;;;;;43.75;23.05;;;6.60;99.90;;;;;;5021869;28;20053;-84
2022/01/29 01:42:08;;;;;;;59.47;25.52;;;6.70;99.90;;;;;;5008086;28;20102;-85
2022/01/29 01:44:38;;;;;;;46.88;22.30;;;6.70;99.90;;;;;;5025623;28;20045;-84
2022/01/29 01:47:05;;;;;;;50.05;26.52;;;6.70;99.90;;;;;;5043055;28;20033;-84
2022/01/29 01:49:31;;;;;;;57.15;26.95;;;6.70;99.90;;;;;;5030328;28;20053;-84
2022/01/29 01:51:58;;;;;;;48.05;25.35;;;6.70;99.90;;;;;;5042723;28;20124;-83
2022/01/29 01:54:23;;;;;;;58.40;27.52;;;6.80;99.90;;;;;;5049216;28;20517;-83
2022/01/29 01:56:49;;;;;;;49.00;23.92;;;6.80;99.90;;;;;;5037718;28;20069;-86
2022/01/29 01:59:15;;;;;;;31.88;17.10;;;6.80;99.90;;;;;;5043905;28;20072;-84
2022/01/29 02:01:41;;;;;;;53.10;25.75;;;6.80;99.90;;;;;;5016374;28;20124;-84
2022/01/29 02:04:06;;;;;;;42.25;19.95;;;6.80;99.90;;;;;;5030004;28;20487;-84
2022/01/29 02:06:33;;;;;;;55.30;26.70;;;6.80;99.90;;;;;;4999498;28;20140;-84
2022/01/29 02:09:00;;;;;;;64.35;27.05;;;6.90;99.90;;;;;;5009446;28;20097;-84
2022/01/29 02:11:27;;;;;;;58.70;26.40;;;6.80;99.90;;;;;;5047528;28;20048;-83
2022/01/29 02:13:58;;;;;;;37.17;18.17;;;6.90;99.90;;;;;;5041456;28;20094;-85
2022/01/29 02:16:26;;;;;;;57.92;25.75;;;6.90;99.90;;;;;;5035367;28;20506;-84
2022/01/29 02:18:52;;;;;;;53.97;23.60;;;7.00;99.90;;;;;;5030718;28;20124;-86
2022/01/29 02:21:19;;;;;;;55.80;24.67;;;6.90;99.90;;;;;;5044877;28;20049;-84
2022/01/29 02:23:45;;;;;;;53.65;23.88;;;7.00;99.90;;;;;;5038222;28;20168;-84
2022/01/29 02:26:11;;;;;;;47.63;22.00;;;7.00;99.90;;;;;;5046456;28;20124;-84
2022/01/29 02:28:37;;;;;;;54.95;25.67;;;7.00;99.90;;;;;;5049284;28;20041;-84
2022/01/29 02:31:04;;;;;;;52.08;24.00;;;7.00;99.90;;;;;;5049877;28;20056;-83
2022/01/29 02:33:32;;;;;;;53.75;21.95;;;7.10;99.90;;;;;;5015869;28;20041;-84
2022/01/29 02:35:58;;;;;;;64.25;25.17;;;7.10;99.90;;;;;;5039642;28;20095;-84
2022/01/29 02:38:26;;;;;;;49.10;21.40;;;7.10;99.90;;;;;;5039136;28;20057;-85
2022/01/29 02:40:58;;;;;;;47.97;21.85;;;7.10;99.90;;;;;;5052038;28;20145;-85
2022/01/29 02:43:38;;;;;;;51.13;23.67;;;7.10;99.90;;;;;;5040662;28;20048;-84
2022/01/29 02:48:49;;;;;;;44.75;20.63;;;7.20;99.90;;;;;;5048983;28;20045;-84
2022/01/29 02:51:16;;;;;;;40.17;17.10;;;7.20;99.90;;;;;;5046140;28;20044;-84
2022/01/29 02:53:42;;;;;;;50.35;21.58;;;7.30;99.90;;;;;;5043784;28;20037;-84
2022/01/29 02:56:09;;;;;;;42.55;20.00;;;7.30;99.90;;;;;;5028902;28;20041;-84
2022/01/29 02:58:35;;;;;;;34.40;15.45;;;7.30;99.90;;;;;;5015628;28;20503;-84
2022/01/29 03:01:01;;;;;;;57.15;23.50;;;7.40;99.90;;;;;;5039761;28;20046;-84
2022/01/29 03:03:27;;;;;;;43.45;17.38;;;7.40;99.90;;;;;;5041462;28;20041;-84
2022/01/29 03:05:53;;;;;;;43.63;18.60;;;7.40;99.90;;;;;;5046807;28;20080;-85
2022/01/29 03:08:19;;;;;;;41.28;18.20;;;7.50;99.90;;;;;;5049268;28;20045;-85
2022/01/29 03:10:47;;;;;;;37.25;19.23;;;7.50;99.90;;;;;;5016670;28;20044;-84
2022/01/29 03:13:13;;;;;;;45.67;20.70;;;7.50;99.90;;;;;;5048287;28;20084;-84
2022/01/29 03:15:39;;;;;;;45.50;21.35;;;7.50;99.90;;;;;;5024395;28;20144;-85
2022/01/29 03:18:05;;;;;;;54.92;21.45;;;7.60;99.90;;;;;;5022628;28;20068;-85
2022/01/29 03:20:31;;;;;;;33.30;17.52;;;7.60;99.90;;;;;;5033106;28;20141;-85
2022/01/29 03:22:57;;;;;;;45.42;19.42;;;7.60;99.90;;;;;;5046300;28;20041;-85
2022/01/29 03:25:24;;;;;;;44.63;18.88;;;7.50;99.90;;;;;;5028721;28;20041;-85
2022/01/29 03:27:50;;;;;;;48.83;20.40;;;7.60;99.90;;;;;;5061638;28;20147;-84
2022/01/29 03:30:16;;;;;;;38.03;14.98;;;7.60;99.90;;;;;;5064313;28;20045;-84
2022/01/29 03:32:42;;;;;;;44.70;20.70;;;7.60;99.90;;;;;;5035216;28;20045;-84
2022/01/29 03:35:09;;;;;;;42.47;19.50;;;7.60;99.90;;;;;;5034386;28;20148;-84
2022/01/29 03:37:34;;;;;;;45.08;20.55;;;7.60;99.90;;;;;;5050116;28;20071;-84
2022/01/29 03:40:03;;;;;;;45.47;20.98;;;7.60;99.90;;;;;;5048043;28;20490;-85
2022/01/29 03:42:33;;;;;;;31.25;14.88;;;7.70;99.90;;;;;;5036403;28;20041;-85
2022/01/29 03:44:58;;;;;;;39.20;20.83;;;7.70;99.90;;;;;;5032323;28;20049;-84
2022/01/29 03:47:24;;;;;;;32.95;15.68;;;7.70;99.90;;;;;;5014642;28;20103;-85
2022/01/29 03:49:50;;;;;;;42.05;19.10;;;7.70;99.90;;;;;;5032311;28;20121;-83
2022/01/29 03:52:16;;;;;;;40.88;17.02;;;7.70;99.90;;;;;;5047207;28;20041;-84
2022/01/29 03:54:43;;;;;;;41.40;19.95;;;7.70;99.90;;;;;;5011384;28;20096;-84
2022/01/29 03:57:09;;;;;;;38.65;19.38;;;7.80;99.90;;;;;;5004046;28;20491;-85
2022/01/29 03:59:34;;;;;;;48.08;18.67;;;7.80;99.90;;;;;;5034890;28;20510;-83
2022/01/29 04:02:00;;;;;;;43.17;19.95;;;7.80;99.90;;;;;;5047873;28;20049;-83
2022/01/29 04:04:26;;;;;;;34.53;15.77;;;7.80;99.90;;;;;;5042260;28;20425;-83
2022/01/29 04:06:52;;;;;;;27.00;13.45;;;7.80;99.90;;;;;;5014330;28;20490;-83
2022/01/29 04:09:19;;;;;;;28.75;13.68;;;7.80;99.90;;;;;;5018732;28;20052;-83
2022/01/29 04:11:44;;;;;;;44.17;19.67;;;7.90;99.90;;;;;;5038979;28;20107;-84
2022/01/29 04:14:18;;;;;;;41.70;17.75;;;7.80;99.90;;;;;;5014301;28;20521;-85
2022/01/29 04:16:44;;;;;;;37.20;16.45;;;7.90;99.90;;;;;;5044131;28;20529;-84
2022/01/29 04:19:11;;;;;;;35.78;17.85;;;7.90;99.90;;;;;;5051392;28;20048;-84
2022/01/29 04:21:37;;;;;;;39.28;17.48;;;7.90;99.90;;;;;;5043691;28;20041;-84
2022/01/29 04:24:03;;;;;;;31.08;16.83;;;7.90;99.90;;;;;;5058775;28;20041;-83
2022/01/29 04:26:34;;;;;;;41.22;18.42;;;7.90;99.90;;;;;;5038442;28;20047;-83
2022/01/29 04:29:03;;;;;;;39.67;16.95;;;7.90;99.90;;;;;;5050934;28;20064;-84
2022/01/29 04:31:37;;;;;;;41.17;18.77;;;7.90;99.90;;;;;;5038333;28;20445;-84
2022/01/29 04:34:03;;;;;;;44.05;17.73;;;8.00;99.90;;;;;;5045564;28;20041;-84
2022/01/29 04:36:29;;;;;;;35.78;18.00;;;8.00;99.90;;;;;;5044809;28;20110;-85
2022/01/29 04:38:55;;;;;;;37.10;18.27;;;8.00;99.90;;;;;;5046881;28;20128;-85
2022/01/29 04:41:21;;;;;;;35.75;16.17;;;7.90;99.90;;;;;;5040875;28;20484;-85
2022/01/29 04:43:47;;;;;;;36.75;19.52;;;8.00;99.90;;;;;;5046411;28;20048;-84
2022/01/29 04:46:14;;;;;;;39.10;19.25;;;8.00;99.90;;;;;;5037030;28;20064;-84
2022/01/29 04:48:39;;;;;;;27.05;13.50;;;8.10;99.90;;;;;;5031533;28;20049;-83
2022/01/29 04:51:06;;;;;;;39.05;17.95;;;8.00;99.90;;;;;;5025494;28;20040;-84
2022/01/29 04:53:32;;;;;;;38.33;18.25;;;8.00;99.90;;;;;;5046278;28;20041;-85
2022/01/29 04:55:57;;;;;;;28.75;14.73;;;8.10;99.90;;;;;;5053347;28;20144;-84
2022/01/29 04:58:23;;;;;;;31.65;17.30;;;8.10;99.90;;;;;;5041453;28;20128;-85
2022/01/29 05:00:49;;;;;;;39.15;18.88;;;8.20;99.90;;;;;;5048313;28;20513;-84
2022/01/29 05:03:15;;;;;;;30.25;15.95;;;8.10;99.90;;;;;;5036897;28;20116;-84
2022/01/29 05:05:42;;;;;;;32.83;16.20;;;8.10;99.90;;;;;;5015696;28;20049;-84
2022/01/29 05:08:08;;;;;;;34.00;17.38;;;8.20;99.90;;;;;;5034889;28;20057;-84
2022/01/29 05:10:35;;;;;;;40.03;16.98;;;8.20;99.90;;;;;;5041731;28;20038;-84
2022/01/29 05:13:05;;;;;;;35.45;17.30;;;8.20;99.90;;;;;;5049980;28;20071;-84
2022/01/29 05:29:12;;;;;;;29.58;13.63;;;8.30;99.90;;;;;;5023220;28;20057;-84
2022/01/29 05:31:39;;;;;;;27.80;15.27;;;8.30;99.90;;;;;;5030518;28;20042;-84
2022/01/29 05:34:05;;;;;;;28.83;15.98;;;8.30;99.90;;;;;;5040679;28;20040;-85
2022/01/29 05:36:31;;;;;;;31.35;14.93;;;8.30;99.90;;;;;;5051228;28;20085;-83
2022/01/29 05:38:57;;;;;;;29.85;16.52;;;8.30;99.90;;;;;;5042401;28;20049;-84
2022/01/29 05:41:23;;;;;;;34.35;16.02;;;8.30;99.90;;;;;;5047807;28;20052;-84
2022/01/29 05:43:49;;;;;;;30.83;15.15;;;8.30;99.90;;;;;;5015892;28;20041;-83
2022/01/29 05:46:16;;;;;;;27.05;14.48;;;8.40;99.90;;;;;;5042178;28;20041;-83
2022/01/29 05:48:43;;;;;;;27.98;14.90;;;8.30;99.90;;;;;;5051516;28;20132;-84
2022/01/29 05:51:09;;;;;;;31.08;15.57;;;8.30;99.90;;;;;;5025405;28;20051;-84
2022/01/29 05:53:35;;;;;;;25.90;13.82;;;8.40;99.90;;;;;;5047222;28;20041;-83
2022/01/29 05:56:01;;;;;;;31.98;15.85;;;8.40;99.90;;;;;;5031904;28;20140;-84
2022/01/29 05:58:27;;;;;;;35.20;16.20;;;8.40;99.90;;;;;;5034161;28;20121;-84
2022/01/29 06:00:53;;;;;;;34.50;15.32;;;8.40;99.90;;;;;;5036785;28;20065;-84
2022/01/29 06:03:19;;;;;;;27.25;12.15;;;8.50;99.90;;;;;;5044684;28;20159;-84
2022/01/29 06:05:45;;;;;;;28.13;14.23;;;8.40;99.90;;;;;;5049056;28;20132;-83
2022/01/29 06:08:10;;;;;;;24.00;11.52;;;8.40;99.90;;;;;;5046236;28;20061;-83
2022/01/29 06:10:36;;;;;;;30.50;13.68;;;8.50;99.90;;;;;;5033203;28;20045;-82
2022/01/29 06:13:10;;;;;;;26.42;13.07;;;8.50;99.90;;;;;;5002792;28;20043;-84
2022/01/29 06:15:40;;;;;;;31.33;15.15;;;8.50;99.90;;;;;;5034474;28;20045;-83
2022/01/29 06:18:06;;;;;;;33.92;15.50;;;8.50;99.90;;;;;;5052939;28;20052;-83
2022/01/29 06:20:32;;;;;;;32.72;14.27;;;8.60;99.90;;;;;;5049332;28;20124;-84
2022/01/29 06:22:58;;;;;;;28.65;14.63;;;8.60;99.90;;;;;;5023433;28;20136;-83
2022/01/29 06:25:24;;;;;;;28.30;14.45;;;8.70;99.90;;;;;;5034782;28;20052;-84
2022/01/29 06:27:51;;;;;;;30.42;14.02;;;8.60;99.90;;;;;;5050545;28;20049;-83
2022/01/29 06:30:16;;;;;;;27.02;12.38;;;8.60;99.90;;;;;;5043065;28;20079;-83
2022/01/29 06:32:43;;;;;;;30.05;14.68;;;8.60;99.90;;;;;;5050861;28;20083;-83
2022/01/29 06:35:09;;;;;;;25.65;13.05;;;8.60;99.90;;;;;;5047373;28;20487;-82
2022/01/29 06:37:35;;;;;;;25.65;13.90;;;8.70;99.90;;;;;;5033462;28;20499;-83
2022/01/29 06:40:01;;;;;;;27.08;12.95;;;8.70;99.90;;;;;;5018934;28;20128;-83
2022/01/29 06:42:27;;;;;;;26.20;12.13;;;8.70;99.90;;;;;;5038361;28;20433;-84
2022/01/29 06:44:52;;;;;;;20.33;9.88;;;8.70;99.90;;;;;;5034723;28;20192;-83
2022/01/29 06:47:18;;;;;;;29.42;13.02;;;8.70;99.90;;;;;;5046236;28;20049;-84
2022/01/29 06:49:44;;;;;;;33.00;12.90;;;8.80;99.90;;;;;;5028211;28;20052;-83
2022/01/29 06:52:10;;;;;;;22.90;12.50;;;8.80;99.90;;;;;;5031817;28;20045;-84
2022/01/29 06:54:35;;;;;;;24.17;12.73;;;8.80;99.90;;;;;;5042914;28;20556;-83
2022/01/29 06:57:01;;;;;;;22.63;11.98;;;8.80;99.90;;;;;;5044402;28;20050;-83
2022/01/29 06:59:27;;;;;;;20.13;10.20;;;8.80;99.90;;;;;;5036769;28;20049;-85
2022/01/29 07:01:52;;;;;;;21.98;11.35;;;8.90;99.90;;;;;;5016723;28;20107;-83
2022/01/29 07:04:18;;;;;;;23.13;11.63;;;8.80;99.90;;;;;;5044357;28;20517;-83
2022/01/29 07:06:44;;;;;;;15.98;9.27;;;8.80;99.90;;;;;;5017050;28;20057;-83
2022/01/29 07:09:10;;;;;;;20.67;10.73;;;8.90;99.90;;;;;;5049056;28;20050;-84
2022/01/29 07:11:35;;;;;;;26.55;11.80;;;8.90;99.90;;;;;;5037451;28;20135;-83
2022/01/29 07:14:04;;;;;;;16.85;8.95;;;8.90;99.90;;;;;;5027084;28;20099;-83
2022/01/29 07:16:35;;;;;;;21.02;10.35;;;8.90;99.90;;;;;;5032933;28;20441;-85
2022/01/29 07:19:02;;;;;;;22.02;9.93;;;9.00;99.90;;;;;;5035567;28;20110;-83
2022/01/29 07:21:27;;;;;;;22.17;10.95;;;8.90;99.90;;;;;;5033340;28;20066;-83
2022/01/29 07:23:53;;;;;;;20.83;11.13;;;8.90;99.90;;;;;;5017219;28;20383;-83
2022/01/29 07:26:19;;;;;;;23.52;10.52;;;8.90;99.90;;;;;;5030985;28;20071;-83
2022/01/29 07:28:44;;;;;;;20.23;10.30;;;8.90;99.90;;;;;;5047327;28;20044;-83
2022/01/29 07:31:10;;;;;;;21.35;9.70;;;8.90;99.90;;;;;;5034601;28;20057;-83
2022/01/29 07:33:36;;;;;;;18.70;10.57;;;8.90;99.90;;;;;;5050234;28;20120;-83
2022/01/29 07:36:02;;;;;;;22.23;10.88;;;8.90;99.90;;;;;;5043227;28;20045;-82
2022/01/29 07:38:27;;;;;;;19.55;10.23;;;8.80;99.90;;;;;;5039606;28;20037;-83
2022/01/29 07:40:53;;;;;;;26.42;10.68;;;8.70;99.90;;;;;;5045793;28;20045;-83
2022/01/29 07:43:19;;;;;;;21.92;9.68;;;8.70;99.90;;;;;;5048945;28;20072;-83
2022/01/29 07:45:45;;;;;;;24.15;12.48;;;8.60;99.90;;;;;;5044270;28;20107;-83
2022/01/29 07:48:11;;;;;;;26.73;13.43;;;8.60;99.90;;;;;;5035098;28;20045;-83
2022/01/29 07:50:37;;;;;;;24.85;13.48;;;8.50;99.90;;;;;;5017188;28;20048;-83
2022/01/29 07:53:03;;;;;;;25.38;12.07;;;8.50;99.90;;;;;;5031667;28;20037;-84
2022/01/29 07:55:30;;;;;;;25.33;14.43;;;8.50;99.90;;;;;;5048501;28;20044;-84
2022/01/29 07:58:01;;;;;;;25.15;12.85;;;8.50;99.90;;;;;;5047603;28;20913;-84
2022/01/29 08:00:27;;;;;;;27.73;14.00;;;8.50;99.90;;;;;;5044098;28;20097;-83
2022/01/29 08:02:53;;;;;;;29.98;13.80;;;8.50;99.90;;;;;;5022959;28;20406;-83
2022/01/29 08:05:18;;;;;;;27.17;13.02;;;8.50;99.90;;;;;;5047267;28;20041;-83
2022/01/29 08:07:44;;;;;;;21.90;12.90;;;8.40;99.90;;;;;;5049831;28;20053;-83
2022/01/29 08:10:10;;;;;;;18.88;10.95;;;8.40;99.90;;;;;;5025414;28;20128;-83
2022/01/29 08:12:36;;;;;;;24.92;12.98;;;8.40;99.90;;;;;;5014510;28;20045;-84
2022/01/29 08:15:03;;;;;;;21.95;12.65;;;8.50;99.90;;;;;;5049845;28;20037;-84
2022/01/29 08:17:29;;;;;;;22.67;12.85;;;8.40;99.90;;;;;;5046448;28;20045;-84
2022/01/29 08:19:54;;;;;;;21.17;12.35;;;8.50;99.90;;;;;;5043075;28;20132;-84
2022/01/29 08:22:20;;;;;;;20.92;11.45;;;8.50;99.90;;;;;;5049165;28;20045;-84
2022/01/29 08:24:46;;;;;;;23.33;11.93;;;8.60;99.90;;;;;;5048966;28;20044;-84
2022/01/29 08:27:12;;;;;;;24.95;12.52;;;8.60;99.90;;;;;;5046221;28;20045;-85
2022/01/29 08:29:37;;;;;;;18.30;10.02;;;8.60;99.90;;;;;;5048901;28;20779;-83
2022/01/29 08:32:04;;;;;;;21.20;11.18;;;8.70;99.90;;;;;;5030625;28;20049;-84
2022/01/29 08:34:30;;;;;;;21.33;11.65;;;8.70;99.90;;;;;;5036832;28;20045;-84
2022/01/29 08:37:02;;;;;;;24.10;10.65;;;8.70;99.90;;;;;;5032375;28;20106;-82
2022/01/29 08:39:28;;;;;;;23.25;11.82;;;8.80;99.90;;;;;;5046807;28;20391;-83
2022/01/29 08:41:54;;;;;;;21.67;9.55;;;8.80;99.90;;;;;;5041523;28;20052;-83
2022/01/29 08:44:19;;;;;;;16.35;10.05;;;8.80;99.90;;;;;;5060799;28;20049;-84
2022/01/29 08:46:45;;;;;;;22.08;11.07;;;8.90;99.90;;;;;;5030228;28;20037;-87
2022/01/29 08:49:11;;;;;;;22.38;9.55;;;8.90;99.90;;;;;;5033211;28;20123;-84
2022/01/29 08:51:37;;;;;;;19.33;9.65;;;8.90;99.90;;;;;;5047614;28;20128;-85
2022/01/29 08:54:03;;;;;;;14.38;8.73;;;9.00;99.90;;;;;;5039234;28;20120;-84
2022/01/29 08:56:29;;;;;;;15.57;6.75;;;9.10;99.90;;;;;;5044616;28;20562;-85
2022/01/29 08:58:55;;;;;;;14.20;7.38;;;9.10;99.90;;;;;;5043236;28;20071;-85
2022/01/29 09:01:21;;;;;;;14.55;6.78;;;9.20;99.90;;;;;;5036452;28;20053;-84
2022/01/29 09:03:47;;;;;;;12.60;6.78;;;9.30;99.90;;;;;;5025233;28;20045;-84
2022/01/29 09:06:12;;;;;;;12.88;7.47;;;9.30;99.90;;;;;;5034987;28;20056;-84
2022/01/29 09:08:40;;;;;;;12.75;7.25;;;9.40;99.90;;;;;;5037356;28;20530;-83
2022/01/29 09:11:06;;;;;;;15.93;7.03;;;9.40;99.90;;;;;;5026576;28;20076;-85
2022/01/29 09:13:31;;;;;;;13.63;6.40;;;9.40;99.90;;;;;;5052422;28;20049;-84
2022/01/29 09:15:58;;;;;;;13.95;6.32;;;9.50;99.90;;;;;;5047333;28;20048;-84
2022/01/29 09:18:24;;;;;;;12.13;5.20;;;9.60;99.90;;;;;;5016501;28;20049;-84
2022/01/29 09:20:50;;;;;;;13.45;5.93;;;9.50;99.90;;;;;;5044661;28;20132;-84
2022/01/29 09:23:15;;;;;;;9.60;5.07;;;9.50;99.90;;;;;;5068946;28;20132;-82
2022/01/29 09:25:42;;;;;;;13.55;5.60;;;9.50;99.90;;;;;;5002617;28;20045;-82
2022/01/29 09:28:08;;;;;;;12.48;5.15;;;9.50;99.90;;;;;;5043708;28;20562;-83
2022/01/29 09:30:35;;;;;;;13.55;5.60;;;9.50;99.90;;;;;;5023343;28;20045;-83
2022/01/29 09:33:01;;;;;;;11.98;5.47;;;9.50;99.90;;;;;;5044282;28;20099;-83
2022/01/29 09:35:27;;;;;;;13.07;5.63;;;9.60;99.90;;;;;;5032451;28;20132;-84
2022/01/29 09:37:54;;;;;;;10.88;6.20;;;9.60;99.90;;;;;;5031508;28;20045;-83
2022/01/29 09:40:21;;;;;;;13.40;6.35;;;9.60;99.90;;;;;;5049585;28;20114;-83
2022/01/29 09:42:50;;;;;;;14.43;5.60;;;9.60;99.90;;;;;;5049669;28;20133;-83
2022/01/29 09:45:17;;;;;;;12.65;5.97;;;9.70;99.90;;;;;;5049591;28;20501;-83
2022/01/29 09:47:45;;;;;;;12.50;5.50;;;9.70;99.90;;;;;;5049473;28;20084;-83
2022/01/29 09:50:12;;;;;;;11.43;5.38;;;9.70;99.90;;;;;;5016210;28;20505;-83
2022/01/29 09:52:38;;;;;;;11.68;5.32;;;9.70;99.90;;;;;;5032634;28;20060;-83
2022/01/29 09:55:05;;;;;;;13.68;4.30;;;9.70;99.90;;;;;;5048791;28;20490;-83
2022/01/29 09:57:31;;;;;;;12.77;4.80;;;9.70;99.90;;;;;;5049131;28;20540;-83
2022/01/29 09:59:56;;;;;;;15.40;6.13;;;9.80;99.90;;;;;;5048767;28;20080;-83
2022/01/29 10:02:23;;;;;;;10.90;4.90;;;9.80;99.90;;;;;;5032779;28;20049;-83
2022/01/29 10:04:54;;;;;;;10.38;5.00;;;9.80;99.90;;;;;;5032938;28;20061;-83
2022/01/29 10:07:28;;;;;;;12.45;5.50;;;9.90;99.90;;;;;;5032897;28;20094;-83
2022/01/29 10:09:56;;;;;;;17.10;3.80;;;10.00;99.90;;;;;;5015727;28;20037;-83
2022/01/29 10:12:27;;;;;;;14.93;4.38;;;10.00;99.90;;;;;;5016110;28;20041;-83
2022/01/29 10:15:06;;;;;;;13.68;4.88;;;10.00;99.90;;;;;;5016171;28;20409;-84
2022/01/29 10:17:47;;;;;;;7.65;3.55;;;10.10;99.90;;;;;;5032661;28;20135;-83
2022/01/29 10:20:31;;;;;;;10.30;4.03;;;10.10;99.90;;;;;;5031663;28;20612;-83
2022/01/29 10:23:00;;;;;;;10.07;4.65;;;10.10;99.90;;;;;;5015627;28;20052;-84
2022/01/29 10:25:32;;;;;;;11.60;3.97;;;10.10;99.90;;;;;;5015888;28;20508;-82
2022/01/29 10:28:11;;;;;;;10.77;4.47;;;10.10;99.90;;;;;;5015512;28;20494;-82
2022/01/29 10:30:49;;;;;;;10.55;4.30;;;10.10;99.90;;;;;;5016064;28;20052;-83
2022/01/29 10:33:34;;;;;;;9.57;4.55;;;10.10;99.90;;;;;;5031725;28;20044;-82
2022/01/29 10:36:09;;;;;;;10.20;3.63;;;10.10;99.90;;;;;;5032048;28;20044;-83
2022/01/29 10:38:41;;;;;;;10.95;4.43;;;10.10;99.90;;;;;;5032699;28;20084;-83
2022/01/29 10:41:24;;;;;;;16.33;4.80;;;10.10;99.90;;;;;;5032158;28;20041;-83
2022/01/29 10:44:00;;;;;;;13.65;4.20;;;10.10;99.90;;;;;;5015989;28;20434;-83
2022/01/29 10:46:27;;;;;;;7.97;3.83;;;10.10;99.90;;;;;;5032467;28;20114;-83
2022/01/29 10:48:52;;;;;;;8.50;3.60;;;10.20;99.90;;;;;;5016056;28;20298;-83
2022/01/29 10:51:18;;;;;;;8.70;3.65;;;10.20;99.90;;;;;;5017611;28;20045;-83
2022/01/29 10:53:44;;;;;;;11.90;3.42;;;10.20;99.90;;;;;;5019505;28;20095;-83
2022/01/29 10:56:10;;;;;;;13.02;3.80;;;10.30;99.90;;;;;;5035469;28;20048;-82
2022/01/29 10:58:40;;;;;;;8.55;3.40;;;10.20;99.90;;;;;;5035917;28;20394;-82
2022/01/29 11:01:19;;;;;;;8.85;3.38;;;10.30;99.90;;;;;;5035371;28;20457;-82
2022/01/29 11:03:45;;;;;;;6.82;2.75;;;10.30;99.90;;;;;;5019057;28;20549;-82
2022/01/29 11:06:17;;;;;;;9.07;3.00;;;10.40;99.90;;;;;;5026095;28;20071;-83
2022/01/29 11:08:43;;;;;;;11.57;3.17;;;10.40;99.90;;;;;;5035818;28;20062;-83
2022/01/29 11:11:10;;;;;;;10.30;2.60;;;10.40;99.90;;;;;;5018653;28;20135;-82
2022/01/29 11:13:37;;;;;;;7.28;3.38;;;10.40;99.90;;;;;;5052052;28;20037;-83
2022/01/29 11:16:03;;;;;;;7.22;2.97;;;10.40;99.90;;;;;;5035178;28;20056;-83
2022/01/29 11:18:31;;;;;;;8.38;2.70;;;10.30;99.90;;;;;;5019128;28;20044;-83
2022/01/29 11:20:57;;;;;;;6.97;2.60;;;10.30;99.90;;;;;;5035628;28;20056;-82
2022/01/29 11:23:25;;;;;;;9.60;3.40;;;10.40;99.90;;;;;;5051767;28;20045;-82
2022/01/29 11:25:59;;;;;;;6.53;2.17;;;10.40;99.90;;;;;;5035503;28;20560;-82
2022/01/29 11:28:27;;;;;;;9.30;2.55;;;10.40;99.90;;;;;;5051504;28;20056;-82
2022/01/29 11:31:14;;;;;;;8.63;2.67;;;10.40;99.90;;;;;;5035404;28;20045;-83
2022/01/29 11:34:21;;;;;;;10.55;2.90;;;10.40;99.90;;;;;;5034928;28;20094;-82
2022/01/29 11:36:47;;;;;;;9.40;2.60;;;10.50;99.90;;;;;;4978196;28;20133;-82
2022/01/29 11:39:19;;;;;;;9.45;2.60;;;10.50;99.90;;;;;;5044462;28;20057;-83
2022/01/29 11:41:45;;;;;;;14.25;3.38;;;10.60;99.90;;;;;;5051720;28;20087;-82
2022/01/29 11:44:27;;;;;;;9.20;2.80;;;10.50;99.90;;;;;;5034715;28;20053;-83
2022/01/29 11:46:53;;;;;;;9.77;2.20;;;10.50;99.90;;;;;;5051930;28;20053;-83
2022/01/29 11:49:21;;;;;;;10.95;2.30;;;10.50;99.90;;;;;;5018370;28;20509;-82
2022/01/29 11:51:51;;;;;;;10.95;2.50;;;10.50;99.90;;;;;;5034651;28;20164;-82
2022/01/29 11:54:23;;;;;;;11.13;2.28;;;10.50;99.90;;;;;;5034253;28;20045;-82
2022/01/29 11:57:05;;;;;;;10.27;2.40;;;10.50;99.90;;;;;;5051622;28;20057;-82
2022/01/29 11:59:31;;;;;;;6.82;1.70;;;10.60;99.90;;;;;;5051430;28;20048;-82
2022/01/29 12:02:02;;;;;;;9.10;2.85;;;10.60;99.90;;;;;;5051283;28;20055;-82
2022/01/29 12:04:50;;;;;;;6.70;2.03;;;10.60;99.90;;;;;;5050726;28;20056;-83
2022/01/29 12:07:29;;;;;;;6.88;1.60;;;10.70;99.90;;;;;;5050358;28;20453;-82
2022/01/29 12:10:03;;;;;;;10.77;2.65;;;10.70;99.90;;;;;;5034526;28;20044;-82
2022/01/29 12:12:30;;;;;;;10.43;2.25;;;10.80;99.90;;;;;;5050574;28;20049;-83
2022/01/29 12:15:11;;;;;;;9.45;2.17;;;10.80;99.90;;;;;;5051261;28;20049;-82
2022/01/29 12:17:50;;;;;;;9.68;2.42;;;10.80;99.90;;;;;;5051149;28;20045;-82
2022/01/29 12:20:26;;;;;;;4.07;1.55;;;10.90;99.90;;;;;;5050721;28;20132;-83
2022/01/29 12:23:00;;;;;;;5.68;1.77;;;10.90;99.90;;;;;;5051340;28;20067;-82
2022/01/29 12:25:27;;;;;;;7.10;1.75;;;10.90;99.90;;;;;;5050220;28;20479;-82
2022/01/29 12:27:57;;;;;;;7.40;1.73;;;11.00;99.90;;;;;;5034452;28;20052;-83
2022/01/29 12:30:26;;;;;;;7.95;1.88;;;11.10;99.90;;;;;;5033446;28;20182;-83
2022/01/29 12:33:05;;;;;;;15.43;2.00;;;11.10;99.90;;;;;;5050849;28;20565;-82
2022/01/29 12:35:33;;;;;;;6.07;1.38;;;11.10;99.90;;;;;;5050436;28;20526;-82
2022/01/29 12:37:59;;;;;;;9.15;1.52;;;11.10;99.90;;;;;;5034323;28;20064;-82
2022/01/29 12:40:26;;;;;;;9.73;1.95;;;11.10;99.90;;;;;;5033431;28;20094;-82
2022/01/29 12:42:56;;;;;;;6.32;1.40;;;11.10;99.90;;;;;;5033838;28;20522;-83
2022/01/29 12:45:25;;;;;;;6.90;1.55;;;11.10;99.90;;;;;;5034597;28;20076;-83
2022/01/29 12:48:06;;;;;;;8.45;2.20;;;11.20;99.90;;;;;;5033815;28;20499;-83
2022/01/29 12:50:32;;;;;;;8.93;1.25;;;11.20;99.90;;;;;;5033292;28;20128;-83
2022/01/29 12:53:11;;;;;;;6.80;1.27;;;11.30;99.90;;;;;;5050461;28;20233;-83
2022/01/29 12:55:37;;;;;;;6.80;1.75;;;11.30;99.90;;;;;;5034074;28;20052;-83
2022/01/29 12:58:03;;;;;;;6.25;1.65;;;11.20;99.90;;;;;;5050249;28;20506;-82
2022/01/29 13:00:30;;;;;;;3.17;1.20;;;11.30;99.90;;;;;;5032985;28;20059;-83